Time;durP1;ratioP1;P1;durP2;ratioP2;P2;SDS_P1;SDS_P2;PMS_P1;PMS_P2;Temp;Humidity;BMP_temperature;BMP_pressure;BME280_temperature;BME280_humidity;BME280_pressure;Samples;Min_cycle;Max_cycle;Signal;HPM_P1;HPM_P2
2023/01/04 00:02:28;;;;;;;12.38;3.28;;;8.60;99.90;;;;;;5092127;28;20062;-79
2023/01/04 00:05:14;;;;;;;9.10;3.60;;;8.60;99.90;;;;;;5111896;28;20050;-79
2023/01/04 00:08:01;;;;;;;13.50;3.78;;;8.60;99.90;;;;;;5113106;28;20051;-83
2023/01/04 00:10:47;;;;;;;9.45;3.67;;;8.60;99.90;;;;;;5095336;28;20138;-85
2023/01/04 00:13:33;;;;;;;9.88;4.00;;;8.60;99.90;;;;;;5113177;28;20051;-81
2023/01/04 00:16:22;;;;;;;10.57;3.80;;;8.50;99.90;;;;;;5109000;28;20407;-81
2023/01/04 00:19:10;;;;;;;17.02;6.15;;;8.40;99.90;;;;;;5113352;28;20460;-84
2023/01/04 00:21:57;;;;;;;11.18;5.70;;;8.40;99.90;;;;;;5097998;28;20092;-81
2023/01/04 00:24:43;;;;;;;10.77;4.35;;;8.30;99.90;;;;;;5091811;28;20051;-80
2023/01/04 00:27:29;;;;;;;10.07;4.20;;;8.40;99.90;;;;;;5110410;28;20058;-83
2023/01/04 00:30:16;;;;;;;10.13;4.53;;;8.30;99.90;;;;;;5093837;28;20055;-84
2023/01/04 00:33:02;;;;;;;10.52;4.00;;;8.30;99.90;;;;;;5111889;28;20116;-80
2023/01/04 00:35:48;;;;;;;12.52;3.90;;;8.30;99.90;;;;;;5091718;28;20506;-81
2023/01/04 00:38:35;;;;;;;11.60;4.38;;;8.20;99.90;;;;;;5091827;28;20483;-84
2023/01/04 00:41:21;;;;;;;10.48;4.35;;;8.20;99.90;;;;;;5075994;28;20047;-81
2023/01/04 00:44:08;;;;;;;7.00;3.72;;;8.30;99.90;;;;;;5091119;28;20096;-84
2023/01/04 00:46:54;;;;;;;11.85;4.05;;;8.30;99.90;;;;;;5094604;28;20055;-82
2023/01/04 00:49:40;;;;;;;11.15;4.18;;;8.30;99.90;;;;;;5097228;28;20399;-85
2023/01/04 00:52:26;;;;;;;7.45;4.13;;;8.40;99.90;;;;;;5109764;28;20052;-80
2023/01/04 00:55:12;;;;;;;9.93;5.30;;;8.30;99.90;;;;;;5091134;28;20052;-80
2023/01/04 00:57:59;;;;;;;9.05;4.38;;;8.30;99.90;;;;;;5077755;28;20042;-80
2023/01/04 01:00:45;;;;;;;12.38;3.78;;;8.40;99.90;;;;;;5108925;28;20108;-83
2023/01/04 01:03:31;;;;;;;18.05;4.28;;;8.40;99.90;;;;;;5109834;28;20047;-84
2023/01/04 01:06:17;;;;;;;11.30;3.85;;;8.40;99.90;;;;;;5095862;28;20055;-82
2023/01/04 01:09:04;;;;;;;17.08;5.20;;;8.40;99.90;;;;;;5090910;28;20051;-84
2023/01/04 01:11:52;;;;;;;12.43;4.13;;;8.40;99.90;;;;;;5090938;28;20048;-79
2023/01/04 01:14:38;;;;;;;11.15;4.15;;;8.40;99.90;;;;;;5109110;28;20479;-85
2023/01/04 01:17:24;;;;;;;10.50;3.45;;;8.40;99.90;;;;;;5109501;28;20043;-85
2023/01/04 01:20:10;;;;;;;12.57;3.72;;;8.40;99.90;;;;;;5091102;28;20092;-79
2023/01/04 01:22:56;;;;;;;7.40;3.50;;;8.40;99.90;;;;;;5096737;28;20393;-81
2023/01/04 01:25:42;;;;;;;9.30;2.95;;;8.40;99.90;;;;;;5094739;28;20760;-81
2023/01/04 01:28:29;;;;;;;8.77;4.07;;;8.30;99.90;;;;;;5089991;28;20056;-80
2023/01/04 01:31:21;;;;;;;8.05;3.60;;;8.30;99.90;;;;;;5091036;28;20055;-83
2023/01/04 01:34:07;;;;;;;10.23;4.30;;;8.30;99.90;;;;;;5109787;28;20050;-82
2023/01/04 01:36:54;;;;;;;8.70;3.40;;;8.30;99.90;;;;;;5109341;28;20043;-85
2023/01/04 01:39:40;;;;;;;13.73;4.22;;;8.40;99.90;;;;;;5109475;28;20040;-81
2023/01/04 01:42:26;;;;;;;9.73;3.15;;;8.30;99.90;;;;;;5109858;28;20116;-84
2023/01/04 01:45:33;;;;;;;11.50;4.95;;;8.30;99.90;;;;;;5110100;28;20563;-85
2023/01/04 01:48:27;;;;;;;10.63;4.18;;;8.30;99.90;;;;;;5093162;28;20163;-85
2023/01/04 01:51:15;;;;;;;7.10;3.13;;;8.30;99.90;;;;;;5111945;28;20051;-81
2023/01/04 01:54:07;;;;;;;8.60;3.35;;;8.30;99.90;;;;;;5112019;28;20514;-80
2023/01/04 01:56:58;;;;;;;6.28;3.40;;;8.30;99.90;;;;;;5094688;28;20051;-81
2023/01/04 01:59:49;;;;;;;5.85;2.90;;;8.30;99.90;;;;;;5095395;28;20046;-84
2023/01/04 02:02:35;;;;;;;6.35;2.88;;;8.30;99.90;;;;;;5114704;28;20498;-81
2023/01/04 02:05:22;;;;;;;11.32;3.00;;;8.30;99.90;;;;;;5111635;28;20052;-79
2023/01/04 02:08:10;;;;;;;5.63;2.55;;;8.30;99.90;;;;;;5098798;28;20051;-79
2023/01/04 02:10:57;;;;;;;4.85;2.30;;;8.30;99.90;;;;;;5112884;28;20044;-83
2023/01/04 02:16:55;;;;;;;8.43;2.45;;;8.30;99.90;;;;;;5093543;28;20108;-77
2023/01/04 02:20:03;;;;;;;6.63;2.22;;;8.40;99.90;;;;;;5116274;28;20057;-83
2023/01/04 02:23:10;;;;;;;4.45;2.00;;;8.40;99.90;;;;;;5113423;28;20062;-79
2023/01/04 02:27:04;;;;;;;4.88;2.22;;;8.40;99.90;;;;;;5094887;28;20407;-82
2023/01/04 02:29:59;;;;;;;7.90;2.00;;;8.40;99.90;;;;;;4968002;28;20187;-81
2023/01/04 02:32:49;;;;;;;5.00;1.83;;;8.40;99.90;;;;;;5011744;28;20573;-82
2023/01/04 02:35:48;;;;;;;9.35;2.28;;;8.40;99.90;;;;;;5113608;28;20071;-81
2023/01/04 02:39:03;;;;;;;5.60;2.33;;;8.40;99.90;;;;;;5096549;28;20046;-85
2023/01/04 02:42:18;;;;;;;5.25;2.03;;;8.40;99.90;;;;;;5112679;28;20640;-77
2023/01/04 02:45:06;;;;;;;4.47;1.95;;;8.40;99.90;;;;;;5080230;28;20599;-82
2023/01/04 02:50:59;;;;;;;3.92;1.83;;;8.40;99.90;;;;;;5092881;28;20047;-83
2023/01/04 02:53:45;;;;;;;4.60;1.80;;;8.40;99.90;;;;;;5112262;28;20726;-76
2023/01/04 02:56:57;;;;;;;5.80;2.20;;;8.50;99.90;;;;;;5100097;28;20039;-86
2023/01/04 03:00:09;;;;;;;4.00;1.88;;;8.50;99.90;;;;;;5077910;28;20039;-81
2023/01/04 03:06:24;;;;;;;4.38;1.48;;;8.40;99.90;;;;;;5111174;28;20059;-79
2023/01/04 03:09:18;;;;;;;6.55;1.83;;;8.50;99.90;;;;;;5092902;28;20051;-82
2023/01/04 03:12:31;;;;;;;5.43;1.70;;;8.50;99.90;;;;;;5091978;28;20137;-80
2023/01/04 03:15:27;;;;;;;2.55;1.35;;;8.60;99.90;;;;;;5093022;28;20578;-84
2023/01/04 03:18:28;;;;;;;4.00;1.60;;;8.60;99.90;;;;;;5111182;28;20090;-86
2023/01/04 03:21:17;;;;;;;5.53;1.70;;;8.60;99.90;;;;;;5113766;28;20142;-84
2023/01/04 03:36:58;;;;;;;6.20;1.58;;;8.80;99.90;;;;;;5092177;28;20105;-84
2023/01/04 03:49:47;;;;;;;6.25;2.00;;;9.00;99.90;;;;;;5092673;28;20077;-78
2023/01/04 03:52:35;;;;;;;4.93;2.72;;;9.10;99.90;;;;;;5111716;28;20044;-78
2023/01/04 03:55:23;;;;;;;3.25;1.88;;;9.10;99.90;;;;;;5114657;28;20138;-79
2023/01/04 03:58:10;;;;;;;5.20;2.97;;;9.20;99.90;;;;;;5117466;28;20077;-79
2023/01/04 04:01:02;;;;;;;5.32;2.50;;;9.20;99.90;;;;;;5112843;28;20055;-82
2023/01/04 04:09:57;;;;;;;7.13;3.60;;;9.30;99.90;;;;;;5108688;28;20059;-78
2023/01/04 04:12:44;;;;;;;6.22;4.00;;;9.30;99.90;;;;;;5110809;28;20399;-82
2023/01/04 04:15:30;;;;;;;8.40;4.82;;;9.40;99.90;;;;;;5093514;28;20108;-81
2023/01/04 04:18:16;;;;;;;12.75;6.15;;;9.40;99.90;;;;;;5114073;28;20055;-85
2023/01/04 04:21:03;;;;;;;10.40;5.93;;;9.50;99.90;;;;;;5092867;28;20051;-78
2023/01/04 04:23:49;;;;;;;14.60;7.28;;;9.60;99.90;;;;;;5110345;28;20410;-80
2023/01/04 04:26:35;;;;;;;14.55;7.35;;;9.60;99.90;;;;;;5114454;28;20403;-85
2023/01/04 04:29:22;;;;;;;13.32;6.97;;;9.70;99.90;;;;;;5093493;28;20063;-77
2023/01/04 04:32:08;;;;;;;22.98;6.97;;;9.80;99.90;;;;;;5092089;28;20509;-80
2023/01/04 04:34:55;;;;;;;19.80;6.30;;;9.80;99.90;;;;;;5110084;28;20054;-77
2023/01/04 04:37:41;;;;;;;16.92;6.20;;;9.90;99.90;;;;;;5091297;28;20111;-82
2023/01/04 04:43:33;;;;;;;18.38;6.07;;;10.10;99.90;;;;;;5108668;28;20126;-79
2023/01/04 04:46:20;;;;;;;12.80;4.47;;;10.10;99.90;;;;;;5109697;28;20083;-79
2023/01/04 04:49:06;;;;;;;10.93;5.50;;;10.10;99.90;;;;;;5094051;28;20056;-78
2023/01/04 04:51:52;;;;;;;12.38;4.75;;;10.10;99.90;;;;;;5110447;28;20047;-79
2023/01/04 04:54:39;;;;;;;15.32;6.07;;;10.10;99.90;;;;;;5110042;28;20078;-80
2023/01/04 04:57:25;;;;;;;12.88;5.30;;;10.10;99.90;;;;;;5114615;28;20039;-83
2023/01/04 05:00:12;;;;;;;15.60;5.30;;;10.10;99.90;;;;;;5110352;28;20583;-85
2023/01/04 05:02:59;;;;;;;18.60;4.22;;;10.10;99.90;;;;;;5091642;28;20051;-85
2023/01/04 05:05:45;;;;;;;13.98;3.70;;;10.10;99.90;;;;;;5110213;28;20074;-81
2023/01/04 05:08:32;;;;;;;13.13;3.40;;;10.10;99.90;;;;;;5109256;28;20116;-82
2023/01/04 05:12:58;;;;;;;8.90;2.97;;;10.10;99.90;;;;;;5090736;28;20059;-81
2023/01/04 05:14:27;;;;;;;16.58;4.03;;;10.00;99.90;;;;;;5109208;28;20050;-80
2023/01/04 05:17:13;;;;;;;12.88;3.75;;;10.10;99.90;;;;;;5110474;28;20529;-82
2023/01/04 05:19:59;;;;;;;13.18;4.00;;;10.00;99.90;;;;;;5092815;28;20495;-79
2023/01/04 05:22:45;;;;;;;7.05;2.40;;;10.10;99.90;;;;;;5091573;28;20079;-83
2023/01/04 05:25:32;;;;;;;12.18;2.85;;;10.10;99.90;;;;;;5109344;28;20491;-78
2023/01/04 05:28:18;;;;;;;6.50;1.65;;;10.20;99.90;;;;;;5092973;28;20066;-83
2023/01/04 05:31:04;;;;;;;7.05;1.60;;;10.20;99.90;;;;;;5101603;28;20399;-80
2023/01/04 05:33:50;;;;;;;10.38;1.80;;;10.20;99.90;;;;;;5094990;28;20118;-78
2023/01/04 05:36:37;;;;;;;13.63;2.40;;;10.30;99.90;;;;;;5082159;28;20062;-86
2023/01/04 05:39:23;;;;;;;7.93;1.83;;;10.30;99.90;;;;;;5096113;28;20055;-81
2023/01/04 05:42:24;;;;;;;7.93;2.85;;;10.30;99.90;;;;;;5113704;28;20047;-78
2023/01/04 05:45:10;;;;;;;8.75;2.10;;;10.30;99.90;;;;;;5112504;28;20408;-80
2023/01/04 05:47:57;;;;;;;4.78;1.85;;;10.30;99.90;;;;;;5094152;28;20040;-86
2023/01/04 05:50:44;;;;;;;6.07;1.90;;;10.30;99.90;;;;;;5094502;28;20091;-78
2023/01/04 05:53:30;;;;;;;7.55;1.75;;;10.30;99.90;;;;;;5095232;28;20154;-82
2023/01/04 05:56:16;;;;;;;8.27;1.88;;;10.30;99.90;;;;;;5114599;28;20054;-80
2023/01/04 05:59:03;;;;;;;14.75;2.55;;;10.30;99.90;;;;;;5115325;28;20429;-87
2023/01/04 06:01:49;;;;;;;7.43;2.00;;;10.30;99.90;;;;;;5114903;28;20143;-78
2023/01/04 06:04:35;;;;;;;6.13;1.58;;;10.30;99.90;;;;;;5112797;28;20051;-79
2023/01/04 06:07:22;;;;;;;6.10;2.25;;;10.30;99.90;;;;;;5113340;28;20048;-78
2023/01/04 06:10:10;;;;;;;10.32;2.05;;;10.20;99.90;;;;;;5113954;28;20048;-81
2023/01/04 06:12:56;;;;;;;14.23;2.70;;;10.30;99.90;;;;;;5095142;28;20407;-84
2023/01/04 06:15:44;;;;;;;15.30;2.97;;;10.30;99.90;;;;;;5096706;28;20056;-81
2023/01/04 06:18:30;;;;;;;10.15;2.65;;;10.30;99.90;;;;;;5102531;28;20044;-86
2023/01/04 06:21:16;;;;;;;7.30;2.55;;;10.30;99.90;;;;;;5118548;28;20043;-77
2023/01/04 06:24:02;;;;;;;10.50;2.38;;;10.30;99.90;;;;;;5089013;28;20044;-80
2023/01/04 06:26:49;;;;;;;12.90;3.10;;;10.30;99.90;;;;;;5118019;28;20108;-78
2023/01/04 06:29:35;;;;;;;11.30;3.28;;;10.30;99.90;;;;;;5121854;28;20120;-78
2023/01/04 06:32:21;;;;;;;17.65;4.10;;;10.30;99.90;;;;;;5120285;28;20050;-82
2023/01/04 06:35:08;;;;;;;15.75;2.78;;;10.20;99.90;;;;;;5122782;28;20071;-81
2023/01/04 06:37:54;;;;;;;9.55;2.30;;;10.30;99.90;;;;;;5099494;28;20135;-83
2023/01/04 06:40:40;;;;;;;10.50;2.20;;;10.20;99.90;;;;;;5114393;28;20391;-82
2023/01/04 06:43:26;;;;;;;12.43;3.00;;;10.30;99.90;;;;;;5095659;28;20596;-87
2023/01/04 06:46:12;;;;;;;11.15;2.28;;;10.20;99.90;;;;;;5094653;28;20063;-83
2023/01/04 06:48:58;;;;;;;16.00;2.55;;;10.30;99.90;;;;;;5096105;28;20090;-86
2023/01/04 06:51:45;;;;;;;10.98;2.80;;;10.20;99.90;;;;;;5098668;28;20101;-85
2023/01/04 06:54:32;;;;;;;13.25;3.22;;;10.30;99.90;;;;;;5116603;28;20054;-85
2023/01/04 06:57:18;;;;;;;20.70;3.72;;;10.30;99.90;;;;;;5102304;28;20484;-85
2023/01/04 07:00:07;;;;;;;20.15;4.03;;;10.30;99.90;;;;;;5111277;28;20054;-90
2023/01/04 07:02:53;;;;;;;16.35;3.60;;;10.30;99.90;;;;;;5112572;28;20491;-86
2023/01/04 07:05:40;;;;;;;25.10;5.47;;;10.30;99.90;;;;;;5114390;28;20419;-81
2023/01/04 07:08:26;;;;;;;22.67;4.45;;;10.30;99.90;;;;;;5094959;28;20086;-85
2023/01/04 07:11:12;;;;;;;24.23;4.03;;;10.30;99.90;;;;;;5112583;28;20048;-84
2023/01/04 07:13:58;;;;;;;20.30;4.40;;;10.30;99.90;;;;;;5114851;28;20098;-83
2023/01/04 07:16:44;;;;;;;16.05;3.53;;;10.30;99.90;;;;;;5078732;28;20044;-85
2023/01/04 07:19:31;;;;;;;18.05;3.78;;;10.30;99.90;;;;;;5092841;28;20047;-84
2023/01/04 07:22:17;;;;;;;27.23;3.83;;;10.30;99.90;;;;;;5115686;28;20392;-85
2023/01/04 07:25:04;;;;;;;26.25;4.55;;;10.30;99.90;;;;;;5099608;28;20052;-82
2023/01/04 07:27:52;;;;;;;23.05;4.35;;;10.30;99.90;;;;;;5110616;28;20047;-82
2023/01/04 07:30:38;;;;;;;25.10;4.32;;;10.30;99.90;;;;;;5058458;28;20059;-83
2023/01/04 07:33:24;;;;;;;18.90;4.78;;;10.30;99.90;;;;;;5073466;28;20523;-83
2023/01/04 07:36:10;;;;;;;27.20;5.70;;;10.30;99.90;;;;;;5094198;28;20048;-84
2023/01/04 07:38:59;;;;;;;23.15;5.38;;;10.30;99.90;;;;;;5093562;28;20044;-78
2023/01/04 07:41:46;;;;;;;17.02;3.80;;;10.30;99.90;;;;;;5072833;28;20055;-77
2023/01/04 07:44:32;;;;;;;15.55;3.17;;;10.30;99.90;;;;;;5075288;28;20138;-85
2023/01/04 07:47:19;;;;;;;20.98;3.95;;;10.30;99.90;;;;;;5090196;28;20056;-82
2023/01/04 07:50:05;;;;;;;15.90;3.20;;;10.40;99.90;;;;;;5088863;28;20154;-78
2023/01/04 07:52:51;;;;;;;15.13;3.97;;;10.40;99.90;;;;;;5071304;28;20058;-82
2023/01/04 07:55:38;;;;;;;23.50;5.15;;;10.40;99.90;;;;;;5070858;28;20142;-79
2023/01/04 07:58:25;;;;;;;19.50;4.40;;;10.40;99.90;;;;;;5092907;28;20411;-81
2023/01/04 08:01:14;;;;;;;16.60;4.13;;;10.30;99.90;;;;;;5096281;28;20051;-82
2023/01/04 08:04:00;;;;;;;13.30;3.75;;;10.30;99.90;;;;;;5073494;28;20052;-86
2023/01/04 08:06:46;;;;;;;20.85;3.80;;;10.40;99.90;;;;;;5095412;28;20059;-83
2023/01/04 08:09:33;;;;;;;21.55;3.55;;;10.40;99.90;;;;;;5090360;28;20570;-78
2023/01/04 08:12:19;;;;;;;18.92;3.67;;;10.40;99.90;;;;;;5090795;28;20048;-78
2023/01/04 08:15:05;;;;;;;20.27;4.70;;;10.30;99.90;;;;;;5071405;28;20052;-83
2023/01/04 08:17:52;;;;;;;22.20;4.18;;;10.40;99.90;;;;;;5071828;28;20059;-79
2023/01/04 08:20:38;;;;;;;10.13;2.55;;;10.30;99.90;;;;;;5058285;28;20056;-78
2023/01/04 08:23:24;;;;;;;20.65;3.58;;;10.40;99.90;;;;;;5071528;28;20471;-82
2023/01/04 08:26:13;;;;;;;22.65;3.35;;;10.30;99.90;;;;;;5090277;28;20056;-82
2023/01/04 08:28:59;;;;;;;18.83;3.42;;;10.30;99.90;;;;;;5081618;28;20052;-79
2023/01/04 08:31:46;;;;;;;16.85;3.17;;;10.30;99.90;;;;;;5091998;28;20143;-77
2023/01/04 08:34:33;;;;;;;11.05;2.78;;;10.40;99.90;;;;;;5092408;28;20093;-77
2023/01/04 08:37:19;;;;;;;18.92;4.38;;;10.40;99.90;;;;;;5097457;28;20500;-84
2023/01/04 08:40:06;;;;;;;18.55;3.67;;;10.40;99.90;;;;;;5097670;28;20105;-81
2023/01/04 08:42:52;;;;;;;21.20;3.70;;;10.40;99.90;;;;;;5112232;28;20193;-82
2023/01/04 08:45:38;;;;;;;23.98;3.53;;;10.40;99.90;;;;;;5111269;28;20052;-85
2023/01/04 08:48:25;;;;;;;20.08;3.55;;;10.40;99.90;;;;;;5091450;28;20055;-78
2023/01/04 08:51:13;;;;;;;24.70;6.15;;;10.50;99.90;;;;;;5090826;28;20047;-79
2023/01/04 08:54:00;;;;;;;28.58;3.95;;;10.50;99.90;;;;;;5109666;28;20051;-77
2023/01/04 08:56:46;;;;;;;24.77;6.25;;;10.50;99.90;;;;;;5091853;28;20047;-76
2023/01/04 08:59:32;;;;;;;21.80;5.85;;;10.50;99.90;;;;;;5110206;28;20054;-79
2023/01/04 09:02:22;;;;;;;27.45;6.25;;;10.50;99.90;;;;;;5090122;28;20048;-79
2023/01/04 09:05:08;;;;;;;29.90;5.07;;;10.50;99.90;;;;;;5089670;28;20809;-80
2023/01/04 09:07:54;;;;;;;25.00;6.35;;;10.60;99.90;;;;;;5110457;28;20415;-78
2023/01/04 09:10:40;;;;;;;34.30;6.43;;;10.60;99.90;;;;;;5092948;28;20048;-80
2023/01/04 09:13:27;;;;;;;27.30;6.13;;;10.60;99.90;;;;;;5098583;28;20056;-81
2023/01/04 09:16:18;;;;;;;31.67;6.15;;;10.60;99.90;;;;;;5110847;28;20143;-78
2023/01/04 09:19:05;;;;;;;44.03;7.20;;;10.70;99.90;;;;;;5091391;28;20040;-78
2023/01/04 09:21:51;;;;;;;37.75;7.38;;;10.70;99.90;;;;;;5091805;28;20055;-77
2023/01/04 09:24:37;;;;;;;36.22;5.82;;;10.70;99.90;;;;;;5091837;28;20047;-78
2023/01/04 09:27:24;;;;;;;37.40;5.97;;;10.70;99.90;;;;;;5090874;28;20044;-82
2023/01/04 09:30:11;;;;;;;41.95;7.18;;;10.70;99.90;;;;;;5091406;28;20593;-82
2023/01/04 09:32:57;;;;;;;33.78;8.90;;;10.70;99.90;;;;;;5110536;28;20047;-79
2023/01/04 09:35:44;;;;;;;36.78;6.32;;;10.70;99.90;;;;;;5076840;28;20062;-79
2023/01/04 09:38:31;;;;;;;36.22;6.65;;;10.70;99.90;;;;;;5091149;28;20841;-83
2023/01/04 09:41:27;;;;;;;35.08;6.90;;;10.70;99.90;;;;;;5090817;28;20503;-82
2023/01/04 09:44:25;;;;;;;37.88;7.22;;;10.80;99.90;;;;;;5090269;28;20762;-79
2023/01/04 09:47:22;;;;;;;27.17;6.18;;;10.80;99.90;;;;;;5090804;28;20044;-83
2023/01/04 09:50:27;;;;;;;40.03;7.32;;;10.80;99.90;;;;;;5091786;28;20415;-80
2023/01/04 09:53:58;;;;;;;45.77;7.27;;;10.80;99.90;;;;;;5095632;28;20048;-81
2023/01/04 09:56:50;;;;;;;38.17;7.65;;;10.80;99.90;;;;;;5109193;28;20083;-82
2023/01/04 09:59:36;;;;;;;31.45;6.30;;;10.80;99.90;;;;;;5077163;28;20051;-84
2023/01/04 10:02:39;;;;;;;31.13;6.70;;;10.80;99.90;;;;;;5109569;28;20510;-78
2023/01/04 10:05:27;;;;;;;25.48;5.53;;;10.80;99.90;;;;;;5114056;28;20044;-78
2023/01/04 10:08:17;;;;;;;39.63;6.85;;;10.80;99.90;;;;;;5090803;28;20051;-80
2023/01/04 10:11:40;;;;;;;45.42;7.78;;;10.90;99.90;;;;;;5090848;28;20400;-79
2023/01/04 10:14:36;;;;;;;32.38;6.32;;;10.90;99.90;;;;;;5111532;28;20052;-79
2023/01/04 10:17:37;;;;;;;26.38;6.05;;;10.90;99.90;;;;;;5093989;28;20085;-80
2023/01/04 10:20:41;;;;;;;37.97;6.95;;;10.90;99.90;;;;;;5094459;28;20062;-81
2023/01/04 10:23:50;;;;;;;31.30;6.80;;;10.90;99.90;;;;;;5112413;28;20630;-81
2023/01/04 10:26:49;;;;;;;31.85;7.47;;;10.90;99.90;;;;;;5112255;28;20047;-79
2023/01/04 10:30:01;;;;;;;37.35;6.55;;;10.90;99.90;;;;;;5082555;28;20056;-82
2023/01/04 10:33:02;;;;;;;34.08;6.80;;;10.90;99.90;;;;;;5102414;28;20052;-79
2023/01/04 10:35:49;;;;;;;35.70;6.53;;;11.00;99.90;;;;;;5081164;28;20372;-82
2023/01/04 10:38:39;;;;;;;33.83;6.22;;;11.00;99.90;;;;;;5093171;28;20134;-82
2023/01/04 10:41:29;;;;;;;33.63;5.97;;;11.00;99.90;;;;;;5079665;28;20051;-80
2023/01/04 10:44:40;;;;;;;35.58;6.28;;;11.00;99.90;;;;;;5113713;28;20050;-82
2023/01/04 10:47:59;;;;;;;36.10;6.32;;;11.00;99.90;;;;;;5070964;28;20047;-79
2023/01/04 10:50:57;;;;;;;35.72;6.85;;;11.00;99.90;;;;;;5112713;28;20097;-82
2023/01/04 10:54:14;;;;;;;36.67;6.95;;;11.00;99.90;;;;;;5096502;28;20132;-80
2023/01/04 10:57:07;;;;;;;33.03;5.57;;;11.00;99.90;;;;;;5112042;28;20050;-80
2023/01/04 11:00:20;;;;;;;43.45;7.45;;;11.10;99.90;;;;;;5092200;28;20043;-80
2023/01/04 11:03:16;;;;;;;29.75;6.88;;;11.10;99.90;;;;;;5057247;28;20505;-84
2023/01/04 11:06:17;;;;;;;34.45;6.20;;;11.10;99.90;;;;;;5112922;28;20529;-80
2023/01/04 11:09:15;;;;;;;23.67;4.68;;;11.10;99.90;;;;;;5112349;28;20104;-80
2023/01/04 11:12:02;;;;;;;25.13;5.57;;;11.10;99.90;;;;;;5094628;28;20139;-82
2023/01/04 11:14:51;;;;;;;25.48;5.00;;;11.00;99.90;;;;;;5095029;28;20051;-82
2023/01/04 11:17:39;;;;;;;26.58;6.85;;;11.10;99.90;;;;;;5112974;28;20051;-85
2023/01/04 11:20:25;;;;;;;25.50;5.18;;;11.00;99.90;;;;;;5095825;28;20079;-84
2023/01/04 11:23:17;;;;;;;29.33;5.68;;;11.10;99.90;;;;;;5117233;28;20101;-80
2023/01/04 11:26:17;;;;;;;28.20;5.93;;;11.10;99.90;;;;;;5111661;28;20654;-81
2023/01/04 11:29:11;;;;;;;25.73;6.60;;;11.10;99.90;;;;;;5110641;28;20062;-81
2023/01/04 11:32:02;;;;;;;29.38;6.07;;;11.10;99.90;;;;;;5093804;28;20063;-81
2023/01/04 11:34:55;;;;;;;21.30;4.50;;;11.20;99.90;;;;;;5111952;28;20048;-80
2023/01/04 11:37:41;;;;;;;27.60;6.13;;;11.20;99.90;;;;;;5111481;28;20055;-81
2023/01/04 11:40:28;;;;;;;27.63;5.43;;;11.30;99.90;;;;;;5092989;28;20566;-80
2023/01/04 11:43:19;;;;;;;28.75;6.03;;;11.40;99.90;;;;;;5112202;28;20166;-83
2023/01/04 11:46:23;;;;;;;44.75;9.43;;;11.50;99.90;;;;;;5110344;28;20087;-79
2023/01/04 11:49:19;;;;;;;29.33;7.88;;;11.50;99.90;;;;;;5078744;28;20138;-81
2023/01/04 11:52:07;;;;;;;37.30;7.50;;;11.60;99.90;;;;;;5111057;28;20069;-79
2023/01/04 11:54:53;;;;;;;32.65;7.00;;;11.60;99.90;;;;;;5113317;28;20065;-80
2023/01/04 11:57:39;;;;;;;28.45;5.60;;;11.60;99.90;;;;;;5117756;28;20112;-82
2023/01/04 12:00:25;;;;;;;29.55;6.65;;;11.60;99.90;;;;;;5113624;28;20487;-82
2023/01/04 12:03:21;;;;;;;26.00;6.15;;;11.60;99.90;;;;;;5092518;28;20051;-80
2023/01/04 12:06:25;;;;;;;33.65;8.85;;;11.70;99.90;;;;;;5110953;28;20051;-83
2023/01/04 12:09:14;;;;;;;31.58;6.07;;;11.70;99.90;;;;;;5091902;28;20105;-80
2023/01/04 12:12:01;;;;;;;34.63;7.05;;;11.70;99.90;;;;;;5110189;28;20131;-84
2023/01/04 12:14:49;;;;;;;29.23;5.95;;;11.70;99.90;;;;;;5093438;28;20105;-80
2023/01/04 12:17:51;;;;;;;26.75;5.38;;;11.60;99.90;;;;;;5093907;28;20055;-80
2023/01/04 12:20:38;;;;;;;32.67;5.80;;;11.60;99.90;;;;;;5077923;28;20083;-79
2023/01/04 12:23:24;;;;;;;24.23;6.22;;;11.60;99.90;;;;;;5091164;28;20073;-79
2023/01/04 12:26:11;;;;;;;24.08;5.95;;;11.70;99.90;;;;;;5110222;28;20083;-79
2023/01/04 12:29:22;;;;;;;27.98;4.90;;;11.70;99.90;;;;;;5109831;28;20059;-81
2023/01/04 12:32:11;;;;;;;28.30;5.82;;;11.60;99.90;;;;;;5092239;28;20143;-83
2023/01/04 12:34:58;;;;;;;28.05;4.72;;;11.70;99.90;;;;;;5111351;28;20267;-86
2023/01/04 12:37:47;;;;;;;28.50;5.05;;;11.70;99.90;;;;;;5115870;28;20054;-81
2023/01/04 12:40:45;;;;;;;18.73;3.28;;;11.60;99.90;;;;;;5110260;28;20051;-79
2023/01/04 12:43:36;;;;;;;20.88;5.22;;;11.60;99.90;;;;;;5108734;28;20441;-81
2023/01/04 12:49:55;;;;;;;20.23;4.05;;;11.60;99.90;;;;;;5109888;28;20048;-80
2023/01/04 12:52:51;;;;;;;24.67;3.88;;;11.60;99.90;;;;;;5110360;28;20043;-81
2023/01/04 12:55:42;;;;;;;22.08;4.15;;;11.60;99.90;;;;;;5094638;28;20484;-81
2023/01/04 12:58:28;;;;;;;19.02;3.80;;;11.70;99.90;;;;;;5108764;28;20105;-82
2023/01/04 13:01:28;;;;;;;23.20;4.90;;;11.60;99.90;;;;;;5091244;28;20063;-79
2023/01/04 13:04:39;;;;;;;28.65;5.05;;;11.60;99.90;;;;;;5090542;28;20051;-83
2023/01/04 13:07:30;;;;;;;18.00;3.58;;;11.60;99.90;;;;;;5113765;28;20070;-79
2023/01/04 13:10:25;;;;;;;21.70;4.55;;;11.60;99.90;;;;;;5096549;28;20487;-80
2023/01/04 13:13:20;;;;;;;33.35;4.65;;;11.60;99.90;;;;;;5111762;28;20149;-82
2023/01/04 13:16:18;;;;;;;20.63;4.35;;;11.60;99.90;;;;;;5108572;28;20189;-80
2023/01/04 13:19:19;;;;;;;19.42;4.05;;;11.50;99.90;;;;;;5109575;28;20062;-81
2023/01/04 13:22:15;;;;;;;21.25;5.35;;;11.50;99.90;;;;;;5091166;28;20048;-80
2023/01/04 13:25:03;;;;;;;23.70;4.88;;;11.50;99.90;;;;;;5095293;28;20404;-80
2023/01/04 13:28:01;;;;;;;28.73;6.05;;;11.50;99.90;;;;;;5093365;28;20491;-86
2023/01/04 13:30:47;;;;;;;24.92;4.38;;;11.40;99.90;;;;;;5091321;28;20491;-81
2023/01/04 13:33:34;;;;;;;17.50;4.47;;;11.50;99.90;;;;;;5081018;28;20058;-84
2023/01/04 13:36:20;;;;;;;34.00;6.07;;;11.40;99.90;;;;;;5109474;28;20097;-83
2023/01/04 13:39:07;;;;;;;36.13;6.82;;;11.40;99.90;;;;;;5109616;28;20047;-85
2023/01/04 13:41:54;;;;;;;27.17;7.75;;;11.20;99.90;;;;;;5116752;28;20506;-86
2023/01/04 13:44:58;;;;;;;29.08;5.55;;;11.10;99.90;;;;;;5101103;28;20060;-81
2023/01/04 13:47:46;;;;;;;35.97;6.07;;;11.10;99.90;;;;;;5110725;28;20121;-85
2023/01/04 13:50:45;;;;;;;29.95;5.57;;;11.00;99.90;;;;;;5117213;28;20054;-81
2023/01/04 13:53:32;;;;;;;33.63;5.82;;;11.00;99.90;;;;;;5096670;28;20048;-81
2023/01/04 13:56:22;;;;;;;26.58;5.60;;;11.00;99.90;;;;;;5115739;28;20105;-83
2023/01/04 13:59:09;;;;;;;25.13;5.80;;;11.10;99.90;;;;;;5116229;28;20070;-84
2023/01/04 14:01:55;;;;;;;35.70;6.15;;;11.00;99.90;;;;;;5113263;28;20135;-86
2023/01/04 14:04:42;;;;;;;37.40;7.47;;;10.90;99.90;;;;;;5095259;28;20205;-85
2023/01/04 14:07:31;;;;;;;37.72;6.57;;;10.90;99.90;;;;;;5114581;28;20047;-80
2023/01/04 14:10:18;;;;;;;35.35;7.00;;;10.90;99.90;;;;;;5114133;28;20054;-81
2023/01/04 14:13:04;;;;;;;35.92;7.65;;;10.90;99.90;;;;;;5095050;28;20049;-85
2023/01/04 14:16:11;;;;;;;38.92;5.18;;;10.80;99.90;;;;;;5113241;28;20487;-83
2023/01/04 14:18:57;;;;;;;37.90;6.10;;;10.80;99.90;;;;;;5098779;28;20403;-83
2023/01/04 14:21:43;;;;;;;33.70;7.25;;;10.80;99.90;;;;;;5114748;28;20051;-83
2023/01/04 14:24:30;;;;;;;29.67;8.52;;;10.80;99.90;;;;;;5114645;28;20495;-79
2023/01/04 14:27:38;;;;;;;27.80;5.28;;;10.70;99.90;;;;;;5119781;28;20054;-83
2023/01/04 14:30:24;;;;;;;27.42;5.95;;;10.80;99.90;;;;;;5110526;28;20047;-84
2023/01/04 14:33:29;;;;;;;27.25;5.25;;;10.80;99.90;;;;;;5111978;28;20051;-82
2023/01/04 14:36:21;;;;;;;26.98;6.10;;;10.80;99.90;;;;;;5110361;28;20082;-81
2023/01/04 14:39:11;;;;;;;34.63;7.20;;;10.80;99.90;;;;;;5093598;28;20066;-84
2023/01/04 14:41:59;;;;;;;34.47;7.32;;;10.80;99.90;;;;;;5089978;28;20571;-84
2023/01/04 14:44:45;;;;;;;28.10;5.90;;;10.90;99.90;;;;;;5094094;28;20665;-84
2023/01/04 14:47:31;;;;;;;30.95;5.18;;;10.80;99.90;;;;;;5093567;28;20059;-82
2023/01/04 14:50:17;;;;;;;25.85;5.78;;;10.90;99.90;;;;;;5093892;28;20466;-81
2023/01/04 14:53:04;;;;;;;32.85;5.95;;;10.90;99.90;;;;;;5092848;28;20521;-85
2023/01/04 14:55:50;;;;;;;34.00;5.00;;;10.90;99.90;;;;;;5098731;28;20043;-83
2023/01/04 14:58:36;;;;;;;31.35;5.60;;;10.90;99.90;;;;;;5104653;28;20435;-79
2023/01/04 15:01:22;;;;;;;35.63;7.25;;;10.90;99.90;;;;;;5094794;28;20039;-84
2023/01/04 15:04:08;;;;;;;34.70;5.80;;;10.70;99.90;;;;;;5079495;28;20078;-83
2023/01/04 15:06:59;;;;;;;36.35;8.32;;;10.70;99.90;;;;;;5112565;28;20783;-84
2023/01/04 15:09:45;;;;;;;32.25;6.03;;;10.60;99.90;;;;;;5079531;28;20456;-80
2023/01/04 15:12:31;;;;;;;34.58;6.38;;;10.60;99.90;;;;;;5093798;28;20104;-80
2023/01/04 15:15:18;;;;;;;33.90;8.40;;;10.60;99.90;;;;;;5113004;28;20151;-81
2023/01/04 15:18:04;;;;;;;30.38;6.32;;;10.50;99.90;;;;;;5113063;28;20039;-81
2023/01/04 15:20:51;;;;;;;37.20;6.75;;;10.50;99.90;;;;;;5094275;28;20047;-80
2023/01/04 15:23:38;;;;;;;37.03;7.25;;;10.60;99.90;;;;;;5093629;28;20231;-78
2023/01/04 15:26:24;;;;;;;37.80;5.25;;;10.60;99.90;;;;;;5082290;28;20147;-80